createdAt,value
2018-12-10T00:00:21.467Z,996.80
2018-12-10T00:01:21.491Z,996.87
2018-12-10T00:02:21.454Z,996.88
2018-12-10T00:03:21.434Z,996.83
2018-12-10T00:04:21.427Z,996.93
2018-12-10T00:05:21.412Z,996.85
2018-12-10T00:06:21.402Z,996.90
2018-12-10T00:07:21.427Z,996.85
2018-12-10T00:08:21.381Z,996.83
2018-12-10T00:09:21.370Z,996.92
2018-12-10T00:10:21.359Z,996.92
2018-12-10T00:11:21.349Z,996.89
2018-12-10T00:12:21.340Z,996.94
2018-12-10T00:13:21.363Z,997.03
2018-12-10T00:14:21.327Z,997.09
2018-12-10T00:15:21.307Z,997.04
2018-12-10T00:16:21.298Z,996.99
2018-12-10T00:17:21.284Z,997.13
2018-12-10T00:18:21.275Z,997.08
2018-12-10T00:19:21.300Z,997.09
2018-12-10T00:20:21.257Z,997.06
2018-12-10T00:21:21.243Z,997.13
2018-12-10T00:22:21.232Z,997.15
2018-12-10T00:23:21.220Z,997.09
2018-12-10T00:24:21.209Z,997.12
2018-12-10T00:25:21.237Z,997.10
2018-12-10T00:26:21.190Z,997.16
2018-12-10T00:27:21.178Z,997.08
2018-12-10T00:28:21.166Z,997.19
2018-12-10T00:29:21.157Z,997.18
2018-12-10T00:30:21.142Z,997.22
2018-12-10T00:31:21.179Z,997.28
2018-12-10T00:32:21.123Z,997.26
2018-12-10T00:33:21.112Z,997.34
2018-12-10T00:34:21.102Z,997.21
2018-12-10T00:35:21.089Z,997.25
2018-12-10T00:36:21.078Z,997.26
2018-12-10T00:37:21.106Z,997.28
2018-12-10T00:38:21.061Z,997.33
2018-12-10T00:39:21.073Z,997.39
2018-12-10T00:40:21.034Z,997.38
2018-12-10T00:41:21.028Z,997.49
2018-12-10T00:42:21.015Z,997.42
2018-12-10T00:43:21.041Z,997.43
2018-12-10T00:44:20.993Z,997.48
2018-12-10T00:45:20.995Z,997.56
2018-12-10T00:46:22.610Z,997.59
2018-12-10T00:47:20.960Z,997.61
2018-12-10T00:48:20.947Z,997.61
2018-12-10T00:49:20.972Z,997.56
2018-12-10T00:50:20.927Z,997.60
2018-12-10T00:51:20.916Z,997.78
2018-12-10T00:52:20.906Z,997.66
2018-12-10T00:53:20.901Z,997.76
2018-12-10T00:54:20.884Z,997.75
2018-12-10T00:55:20.909Z,997.75
2018-12-10T00:56:20.869Z,997.80
2018-12-10T00:57:20.849Z,997.78
2018-12-10T00:58:20.841Z,997.81
2018-12-10T00:59:20.825Z,997.86
2018-12-10T01:00:20.819Z,997.84
2018-12-10T01:01:20.842Z,997.81
2018-12-10T01:02:20.795Z,997.91
2018-12-10T01:03:20.786Z,997.90
2018-12-10T01:04:20.776Z,997.95
2018-12-10T01:05:20.764Z,997.91
2018-12-10T01:06:20.754Z,997.96
2018-12-10T01:07:20.782Z,998.04
2018-12-10T01:08:20.734Z,998.06
2018-12-10T01:09:20.723Z,998.06
2018-12-10T01:10:20.709Z,998.05
2018-12-10T01:11:20.700Z,998.11
2018-12-10T01:12:20.689Z,998.10
2018-12-10T01:13:20.713Z,998.08
2018-12-10T01:14:20.667Z,998.13
2018-12-10T01:15:20.657Z,998.13
2018-12-10T01:16:20.644Z,998.19
2018-12-10T01:17:20.638Z,998.14
2018-12-10T01:18:20.625Z,998.11
2018-12-10T01:19:20.652Z,998.18
2018-12-10T01:20:20.603Z,998.20
2018-12-10T01:21:20.594Z,998.15
2018-12-10T01:22:20.583Z,998.22
2018-12-10T01:23:20.571Z,998.24
2018-12-10T01:24:20.560Z,998.26
2018-12-10T01:25:20.593Z,998.26
2018-12-10T01:26:20.538Z,998.29
2018-12-10T01:27:20.533Z,998.32
2018-12-10T01:28:20.519Z,998.29
2018-12-10T01:29:20.508Z,998.40
2018-12-10T01:30:20.499Z,998.40
2018-12-10T01:31:20.522Z,998.49
2018-12-10T01:32:20.476Z,998.63
2018-12-10T01:33:20.465Z,998.46
2018-12-10T01:34:20.471Z,998.46
2018-12-10T01:35:20.443Z,998.48
2018-12-10T01:36:20.436Z,998.53
2018-12-10T01:37:20.459Z,998.47
2018-12-10T01:38:20.462Z,998.41
2018-12-10T01:39:20.399Z,998.53
2018-12-10T01:40:20.389Z,998.60
2018-12-10T01:41:20.381Z,998.49
2018-12-10T01:42:20.368Z,998.59
2018-12-10T01:43:20.398Z,998.66
2018-12-10T01:44:20.345Z,998.59
2018-12-10T01:45:20.336Z,998.59
2018-12-10T01:46:20.330Z,998.60
2018-12-10T01:47:20.313Z,998.62
2018-12-10T01:48:20.307Z,998.68
2018-12-10T01:49:20.329Z,998.62
2018-12-10T01:50:20.284Z,998.61
2018-12-10T01:51:20.272Z,998.63
2018-12-10T01:52:20.259Z,998.68
2018-12-10T01:53:20.249Z,998.73
2018-12-10T01:54:20.237Z,998.66
2018-12-10T01:55:20.262Z,998.73
2018-12-10T01:56:20.215Z,998.73
2018-12-10T01:57:20.206Z,998.72
2018-12-10T01:58:20.211Z,998.80
2018-12-10T01:59:20.182Z,998.73
2018-12-10T02:00:20.175Z,998.74
2018-12-10T02:01:20.198Z,998.76
2018-12-10T02:02:20.153Z,998.79
2018-12-10T02:03:20.143Z,998.82
2018-12-10T02:04:20.128Z,998.88
2018-12-10T02:05:20.117Z,998.95
2018-12-10T02:06:20.108Z,998.88
2018-12-10T02:07:20.137Z,998.93
2018-12-10T02:08:20.085Z,998.94
2018-12-10T02:09:20.074Z,998.94
2018-12-10T02:10:20.070Z,998.95
2018-12-10T02:11:20.054Z,998.97
2018-12-10T02:12:20.043Z,998.92
2018-12-10T02:13:20.068Z,999.02
2018-12-10T02:14:20.021Z,999.02
2018-12-10T02:15:20.013Z,999.03
2018-12-10T02:16:19.999Z,999.01
2018-12-10T02:17:19.991Z,999.08
2018-12-10T02:18:19.981Z,999.05
2018-12-10T02:19:20.005Z,999.03
2018-12-10T02:20:19.958Z,999.00
2018-12-10T02:21:19.947Z,999.03
2018-12-10T02:22:19.937Z,999.04
2018-12-10T02:23:19.924Z,999.01
2018-12-10T02:24:19.915Z,999.05
2018-12-10T02:25:19.941Z,999.10
2018-12-10T02:26:19.896Z,999.03
2018-12-10T02:27:19.884Z,999.27
2018-12-10T02:28:19.874Z,999.15
2018-12-10T02:29:19.861Z,999.07
2018-12-10T02:30:19.851Z,999.11
2018-12-10T02:31:19.878Z,999.09
2018-12-10T02:32:19.836Z,999.12
2018-12-10T02:33:19.818Z,999.15
2018-12-10T02:34:19.807Z,999.15
2018-12-10T02:35:19.798Z,999.15
2018-12-10T02:36:19.784Z,999.16
2018-12-10T02:37:19.820Z,999.18
2018-12-10T02:38:19.762Z,999.21
2018-12-10T02:39:19.755Z,999.26
2018-12-10T02:40:19.745Z,999.25
2018-12-10T02:41:19.731Z,999.22
2018-12-10T02:42:19.721Z,999.21
2018-12-10T02:43:19.754Z,999.33
2018-12-10T02:44:19.702Z,999.37
2018-12-10T02:45:19.687Z,999.37
2018-12-10T02:46:19.678Z,999.36
2018-12-10T02:47:19.667Z,999.31
2018-12-10T02:48:19.656Z,999.30
2018-12-10T02:49:19.688Z,999.33
2018-12-10T02:50:19.634Z,999.30
2018-12-10T02:51:19.621Z,999.33
2018-12-10T02:52:19.614Z,999.43
2018-12-10T02:53:19.600Z,999.28
2018-12-10T02:54:19.590Z,999.34
2018-12-10T02:55:19.617Z,999.37
2018-12-10T02:56:19.570Z,999.34
2018-12-10T02:57:19.557Z,999.37
2018-12-10T02:58:19.545Z,999.37
2018-12-10T02:59:19.536Z,999.35
2018-12-10T03:00:19.533Z,999.34
2018-12-10T03:01:19.553Z,999.36
2018-12-10T03:02:19.502Z,999.39
2018-12-10T03:03:19.491Z,999.38
2018-12-10T03:04:19.483Z,999.35
2018-12-10T03:05:19.469Z,999.41
2018-12-10T03:06:19.462Z,999.40
2018-12-10T03:07:19.484Z,999.36
2018-12-10T03:08:19.436Z,999.47
2018-12-10T03:09:19.425Z,999.49
2018-12-10T03:10:19.419Z,999.47
2018-12-10T03:11:19.405Z,999.43
2018-12-10T03:12:19.394Z,999.48
2018-12-10T03:13:19.417Z,999.35
2018-12-10T03:14:19.372Z,999.53
2018-12-10T03:15:19.359Z,999.41
2018-12-10T03:16:19.348Z,999.40
2018-12-10T03:17:19.338Z,999.49
2018-12-10T03:18:19.332Z,999.46
2018-12-10T03:19:19.349Z,999.52
2018-12-10T03:20:19.308Z,999.55
2018-12-10T03:21:19.294Z,999.50
2018-12-10T03:22:19.382Z,999.48
2018-12-10T03:23:19.272Z,999.64
2018-12-10T03:24:19.265Z,999.55
2018-12-10T03:25:19.289Z,999.66
2018-12-10T03:26:19.238Z,999.63
2018-12-10T03:27:19.226Z,999.66
2018-12-10T03:28:19.235Z,999.75
2018-12-10T03:29:19.204Z,999.73
2018-12-10T03:30:19.206Z,999.73
2018-12-10T03:31:19.242Z,999.72
2018-12-10T03:32:19.179Z,999.79
2018-12-10T03:33:19.161Z,999.89
2018-12-10T03:34:19.149Z,999.86
2018-12-10T03:35:19.142Z,999.91
2018-12-10T03:36:19.132Z,999.85
2018-12-10T03:37:19.151Z,999.79
2018-12-10T03:38:19.104Z,999.85
2018-12-10T03:39:19.096Z,999.90
2018-12-10T03:40:19.085Z,999.94
2018-12-10T03:41:19.074Z,999.96
2018-12-10T03:42:19.063Z,999.98
2018-12-10T03:43:19.088Z,1000.03
2018-12-10T03:44:19.040Z,1000.07
2018-12-10T03:45:19.031Z,1000.26
2018-12-10T03:46:19.018Z,1000.05
2018-12-10T03:47:19.009Z,1000.09
2018-12-10T03:48:19.000Z,1000.08
2018-12-10T03:49:19.042Z,999.99
2018-12-10T03:50:18.978Z,1000.07
2018-12-10T03:51:18.963Z,1000.11
2018-12-10T03:52:18.955Z,1000.09
2018-12-10T03:53:18.948Z,1000.15
2018-12-10T03:54:18.929Z,1000.11
2018-12-10T03:55:18.965Z,1000.12
2018-12-10T03:56:18.910Z,1000.14
2018-12-10T03:57:18.898Z,1000.22
2018-12-10T03:58:18.892Z,1000.23
2018-12-10T03:59:18.874Z,1000.25
2018-12-10T04:00:18.861Z,1000.22
2018-12-10T04:01:18.886Z,1000.18
2018-12-10T04:02:18.841Z,1000.31
2018-12-10T04:03:18.837Z,1000.29
2018-12-10T04:04:18.818Z,1000.36
2018-12-10T04:05:18.809Z,1000.35
2018-12-10T04:06:18.798Z,1000.35
2018-12-10T04:07:18.824Z,1000.36
2018-12-10T04:08:18.778Z,1000.35
2018-12-10T04:09:18.766Z,1000.42
2018-12-10T04:10:18.759Z,1000.42
2018-12-10T04:11:18.742Z,1000.49
2018-12-10T04:12:18.733Z,1000.45
2018-12-10T04:13:18.755Z,1000.48
2018-12-10T04:14:18.711Z,1000.55
2018-12-10T04:15:18.702Z,1000.52
2018-12-10T04:16:18.689Z,1000.46
2018-12-10T04:17:18.679Z,1000.38
2018-12-10T04:18:18.667Z,1000.48
2018-12-10T04:19:18.694Z,1000.54
2018-12-10T04:20:18.644Z,1000.62
2018-12-10T04:21:18.633Z,1000.53
2018-12-10T04:22:18.621Z,1000.61
2018-12-10T04:23:18.608Z,1000.58
2018-12-10T04:24:18.598Z,1000.57
2018-12-10T04:25:18.625Z,1000.52
2018-12-10T04:26:18.579Z,1000.54
2018-12-10T04:27:18.568Z,1000.56
2018-12-10T04:28:18.562Z,1000.60
2018-12-10T04:29:18.547Z,1000.57
2018-12-10T04:30:18.647Z,1000.54
2018-12-10T04:31:18.559Z,1000.65
2018-12-10T04:32:18.510Z,1000.78
2018-12-10T04:33:18.501Z,1000.63
2018-12-10T04:34:18.492Z,1000.48
2018-12-10T04:35:18.479Z,1000.70
2018-12-10T04:36:18.467Z,1000.74
2018-12-10T04:37:18.492Z,1000.72
2018-12-10T04:38:18.453Z,1000.75
2018-12-10T04:39:18.439Z,1000.73
2018-12-10T04:40:18.430Z,1000.71
2018-12-10T04:41:18.413Z,1000.73
2018-12-10T04:42:18.402Z,1000.75
2018-12-10T04:43:18.425Z,1000.71
2018-12-10T04:44:18.379Z,1000.78
2018-12-10T04:45:18.369Z,1000.71
2018-12-10T04:46:18.359Z,1000.76
2018-12-10T04:47:18.346Z,1000.86
2018-12-10T04:48:18.336Z,1000.83
2018-12-10T04:49:18.360Z,1000.83
2018-12-10T04:50:18.316Z,1000.77
2018-12-10T04:51:18.300Z,1000.88
2018-12-10T04:52:18.293Z,1000.81
2018-12-10T04:53:18.279Z,1000.82
2018-12-10T04:54:18.271Z,1000.82
2018-12-10T04:55:18.294Z,1000.92
2018-12-10T04:56:18.246Z,1001.00
2018-12-10T04:57:18.235Z,1000.93
2018-12-10T04:58:18.224Z,1000.87
2018-12-10T04:59:18.215Z,1001.00
2018-12-10T05:00:18.204Z,1001.02
2018-12-10T05:01:18.301Z,1000.93
2018-12-10T05:02:18.185Z,1000.99
2018-12-10T05:03:18.170Z,1001.00
2018-12-10T05:04:18.157Z,1001.06
2018-12-10T05:05:18.150Z,1001.12
2018-12-10T05:06:18.136Z,1001.09
2018-12-10T05:07:18.163Z,1001.16
2018-12-10T05:08:18.113Z,1001.19
2018-12-10T05:09:18.103Z,1001.09
2018-12-10T05:10:18.103Z,1001.17
2018-12-10T05:11:18.081Z,1001.20
2018-12-10T05:12:18.071Z,1001.20
2018-12-10T05:13:18.098Z,1001.19
2018-12-10T05:14:18.047Z,1001.19
2018-12-10T05:15:18.035Z,1001.26
2018-12-10T05:16:18.024Z,1001.22
2018-12-10T05:17:18.013Z,1001.25
2018-12-10T05:18:18.001Z,1001.30
2018-12-10T05:19:18.044Z,1001.31
2018-12-10T05:20:17.981Z,1001.25
2018-12-10T05:21:17.969Z,1001.32
2018-12-10T05:22:17.960Z,1001.35
2018-12-10T05:23:18.030Z,1001.35
2018-12-10T05:24:17.937Z,1001.39
2018-12-10T05:25:17.962Z,1001.39
2018-12-10T05:26:17.929Z,1001.35
2018-12-10T05:27:17.903Z,1001.35
2018-12-10T05:28:17.892Z,1001.33
2018-12-10T05:29:17.879Z,1001.36
2018-12-10T05:30:17.868Z,1001.35
2018-12-10T05:31:17.883Z,1001.36
2018-12-10T05:32:17.846Z,1001.35
2018-12-10T05:33:17.837Z,1001.37
2018-12-10T05:34:17.878Z,1001.39
2018-12-10T05:35:17.818Z,1001.29
2018-12-10T05:36:17.843Z,1001.44
2018-12-10T05:37:17.791Z,1001.50
2018-12-10T05:38:17.783Z,1001.44
2018-12-10T05:39:17.770Z,1001.47
2018-12-10T05:40:17.759Z,1001.51
2018-12-10T05:41:17.747Z,1001.55
2018-12-10T05:42:17.765Z,1001.59
2018-12-10T05:43:17.726Z,1001.51
2018-12-10T05:44:17.715Z,1001.38
2018-12-10T05:45:17.703Z,1001.56
2018-12-10T05:46:17.691Z,1001.55
2018-12-10T05:47:17.719Z,1001.57
2018-12-10T05:48:17.687Z,1001.59
2018-12-10T05:49:17.659Z,1001.62
2018-12-10T05:50:17.646Z,1001.63
2018-12-10T05:51:17.635Z,1001.54
2018-12-10T05:52:17.626Z,1001.53
2018-12-10T05:53:17.650Z,1001.65
2018-12-10T05:54:17.607Z,1001.67
2018-12-10T05:55:17.592Z,1001.62
2018-12-10T05:56:17.584Z,1001.67
2018-12-10T05:57:17.572Z,1001.66
2018-12-10T05:58:17.828Z,1001.67
2018-12-10T05:59:17.572Z,1001.77
2018-12-10T06:00:17.540Z,1001.72
2018-12-10T06:01:17.527Z,1001.74
2018-12-10T06:02:17.514Z,1001.74
2018-12-10T06:03:17.502Z,1001.76
2018-12-10T06:04:17.528Z,1001.69
2018-12-10T06:05:17.480Z,1001.73
2018-12-10T06:06:17.471Z,1001.71
2018-12-10T06:07:17.458Z,1001.71
2018-12-10T06:08:17.449Z,1001.76
2018-12-10T06:09:17.479Z,1001.68
2018-12-10T06:10:17.425Z,1001.78
2018-12-10T06:11:17.416Z,1001.80
2018-12-10T06:12:17.404Z,1001.83
2018-12-10T06:13:17.390Z,1001.77
2018-12-10T06:14:17.381Z,1001.80
2018-12-10T06:15:17.406Z,1001.77
2018-12-10T06:16:17.358Z,1001.79
2018-12-10T06:17:17.345Z,1001.87
2018-12-10T06:18:17.334Z,1001.88
2018-12-10T06:19:17.327Z,1001.94
2018-12-10T06:20:17.312Z,1001.89
2018-12-10T06:21:17.338Z,1001.86
2018-12-10T06:22:17.292Z,1001.95
2018-12-10T06:23:17.283Z,1001.95
2018-12-10T06:24:17.272Z,1001.98
2018-12-10T06:25:17.263Z,1001.95
2018-12-10T06:26:17.246Z,1002.05
2018-12-10T06:27:17.271Z,1002.05
2018-12-10T06:28:17.227Z,1001.98
2018-12-10T06:29:17.217Z,1001.96
2018-12-10T06:30:17.207Z,1002.05
2018-12-10T06:31:17.191Z,1002.10
2018-12-10T06:32:17.180Z,1002.07
2018-12-10T06:33:17.210Z,1002.12
2018-12-10T06:34:17.158Z,1002.06
2018-12-10T06:35:17.148Z,1002.04
2018-12-10T06:36:17.136Z,1002.01
2018-12-10T06:37:17.124Z,1002.18
2018-12-10T06:38:17.118Z,1002.16
2018-12-10T06:39:17.251Z,1002.05
2018-12-10T06:40:17.095Z,1002.13
2018-12-10T06:41:17.081Z,1002.04
2018-12-10T06:42:17.072Z,1002.06
2018-12-10T06:43:17.059Z,1002.14
2018-12-10T06:44:17.047Z,1002.18
2018-12-10T06:45:17.073Z,1002.24
2018-12-10T06:46:17.024Z,1002.22
2018-12-10T06:47:17.013Z,1002.20
2018-12-10T06:48:17.004Z,1002.24
2018-12-10T06:49:16.991Z,1002.31
2018-12-10T06:50:16.979Z,1002.31
2018-12-10T06:51:17.004Z,1002.37
2018-12-10T06:52:16.959Z,1002.35
2018-12-10T06:53:16.947Z,1002.47
2018-12-10T06:54:16.935Z,1002.36
2018-12-10T06:55:16.925Z,1002.58
2018-12-10T06:56:16.915Z,1002.59
2018-12-10T06:57:16.940Z,1002.60
2018-12-10T06:58:16.893Z,1002.63
2018-12-10T06:59:16.880Z,1002.66
2018-12-10T07:00:16.869Z,1002.58
2018-12-10T07:01:16.861Z,1002.73
2018-12-10T07:02:16.853Z,1002.75
2018-12-10T07:03:16.875Z,1002.69
2018-12-10T07:04:16.826Z,1002.64
2018-12-10T07:05:16.813Z,1002.67
2018-12-10T07:06:16.807Z,1002.68
2018-12-10T07:07:16.791Z,1002.69
2018-12-10T07:08:16.799Z,1002.67
2018-12-10T07:09:16.807Z,1002.70
2018-12-10T07:10:16.793Z,1002.71
2018-12-10T07:11:16.749Z,1002.70
2018-12-10T07:12:16.736Z,1002.81
2018-12-10T07:13:16.729Z,1002.74
2018-12-10T07:14:16.716Z,1002.77
2018-12-10T07:15:16.742Z,1002.66
2018-12-10T07:16:16.692Z,1002.66
2018-12-10T07:17:16.681Z,1002.74
2018-12-10T07:18:16.671Z,1002.71
2018-12-10T07:19:16.662Z,1002.73
2018-12-10T07:20:16.651Z,1002.77
2018-12-10T07:21:16.662Z,1002.84
2018-12-10T07:22:16.628Z,1002.77
2018-12-10T07:23:16.615Z,1002.80
2018-12-10T07:24:16.605Z,1002.83
2018-12-10T07:25:16.620Z,1002.82
2018-12-10T07:26:16.582Z,1002.77
2018-12-10T07:27:16.572Z,1002.80
2018-12-10T07:28:16.563Z,1002.82
2018-12-10T07:29:16.551Z,1002.77
2018-12-10T07:30:16.574Z,1002.90
2018-12-10T07:31:16.526Z,1002.84
2018-12-10T07:32:16.517Z,1002.84
2018-12-10T07:33:16.506Z,1002.99
2018-12-10T07:34:16.493Z,1002.86
2018-12-10T07:35:16.519Z,1002.75
2018-12-10T07:36:16.471Z,1002.86
2018-12-10T07:37:16.461Z,1002.79
2018-12-10T07:38:16.449Z,1002.90
2018-12-10T07:39:16.442Z,1002.89
2018-12-10T07:40:16.427Z,1002.92
2018-12-10T07:41:16.442Z,1002.94
2018-12-10T07:42:16.406Z,1002.89
2018-12-10T07:43:16.393Z,1003.00
2018-12-10T07:44:16.383Z,1002.89
2018-12-10T07:45:16.373Z,1003.04
2018-12-10T07:46:16.408Z,1002.83
2018-12-10T07:47:16.354Z,1002.96
2018-12-10T07:48:16.448Z,1002.93
2018-12-10T07:49:16.331Z,1002.88
2018-12-10T07:50:16.341Z,1002.87
2018-12-10T07:51:16.304Z,1002.93
2018-12-10T07:52:16.294Z,1002.85
2018-12-10T07:53:16.288Z,1003.00
2018-12-10T07:54:16.274Z,1003.00
2018-12-10T07:55:16.298Z,1002.98
2018-12-10T07:56:16.252Z,1003.10
2018-12-10T07:57:16.241Z,1003.06
2018-12-10T07:58:16.269Z,1003.10
2018-12-10T07:59:16.217Z,1003.04
2018-12-10T08:00:16.207Z,1003.02
2018-12-10T08:01:16.218Z,1003.18
2018-12-10T08:02:16.185Z,1003.04
2018-12-10T08:03:16.194Z,1003.09
2018-12-10T08:04:16.160Z,1003.05
2018-12-10T08:05:16.149Z,1003.03
2018-12-10T08:06:16.164Z,1003.06
2018-12-10T08:07:16.129Z,1003.06
2018-12-10T08:08:16.118Z,1003.21
2018-12-10T08:09:16.105Z,1003.04
2018-12-10T08:10:16.133Z,1003.06
2018-12-10T08:11:16.085Z,1003.05
2018-12-10T08:12:16.073Z,1003.13
2018-12-10T08:13:16.062Z,1003.08
2018-12-10T08:14:16.054Z,1003.06
2018-12-10T08:15:16.040Z,1003.08
2018-12-10T08:16:16.098Z,1003.02
2018-12-10T08:17:16.026Z,1003.19
2018-12-10T08:18:16.006Z,1003.14
2018-12-10T08:19:15.998Z,1003.16
2018-12-10T08:20:16.008Z,1003.15
2018-12-10T08:21:15.973Z,1003.14
2018-12-10T08:22:15.968Z,1003.19
2018-12-10T08:23:15.956Z,1003.17
2018-12-10T08:24:15.939Z,1003.20
2018-12-10T08:25:15.953Z,1003.30
2018-12-10T08:26:15.917Z,1003.29
2018-12-10T08:27:15.906Z,1003.37
2018-12-10T08:28:15.895Z,1003.38
2018-12-10T08:29:15.885Z,1003.22
2018-12-10T08:30:15.876Z,1003.14
2018-12-10T08:31:15.888Z,1003.19
2018-12-10T08:32:15.849Z,1003.27
2018-12-10T08:33:15.840Z,1003.26
2018-12-10T08:34:15.832Z,1003.29
2018-12-10T08:35:15.840Z,1003.22
2018-12-10T08:36:15.815Z,1003.27
2018-12-10T08:37:15.793Z,1003.25
2018-12-10T08:38:15.798Z,1003.27
2018-12-10T08:39:15.833Z,1003.15
2018-12-10T08:40:15.867Z,1003.33
2018-12-10T08:41:15.750Z,1003.32
2018-12-10T08:42:15.740Z,1003.28
2018-12-10T08:43:15.728Z,1003.23
2018-12-10T08:44:15.714Z,1003.33
2018-12-10T08:45:15.731Z,1003.40
2018-12-10T08:46:15.696Z,1003.33
2018-12-10T08:47:16.447Z,1003.26
2018-12-10T08:48:15.672Z,1003.21
2018-12-10T08:49:15.661Z,1003.28
2018-12-10T08:50:15.688Z,1003.43
2018-12-10T08:51:15.786Z,1003.35
2018-12-10T08:52:15.677Z,1003.44
2018-12-10T08:53:15.618Z,1003.33
2018-12-10T08:54:15.608Z,1003.40
2018-12-10T08:55:15.606Z,1003.40
2018-12-10T08:56:15.609Z,1003.37
2018-12-10T08:57:15.750Z,1003.35
2018-12-10T08:58:15.567Z,1003.34
2018-12-10T08:59:15.557Z,1003.31
2018-12-10T09:00:15.578Z,1003.43
2018-12-10T09:01:15.531Z,1003.38
2018-12-10T09:02:15.519Z,1003.42
2018-12-10T09:03:15.508Z,1003.40
2018-12-10T09:04:15.499Z,1003.35
2018-12-10T09:05:15.486Z,1003.41
2018-12-10T09:06:15.500Z,1003.34
2018-12-10T09:07:15.463Z,1003.45
2018-12-10T09:08:15.453Z,1003.41
2018-12-10T09:09:15.441Z,1003.43
2018-12-10T09:10:15.456Z,1003.42
2018-12-10T09:11:15.446Z,1003.39
2018-12-10T09:12:15.408Z,1003.45
2018-12-10T09:13:15.398Z,1003.40
2018-12-10T09:14:15.386Z,1003.29
2018-12-10T09:15:15.427Z,1003.42
2018-12-10T09:16:15.363Z,1003.45
2018-12-10T09:17:15.354Z,1003.39
2018-12-10T09:18:15.342Z,1003.55
2018-12-10T09:19:15.332Z,1003.48
2018-12-10T09:20:15.341Z,1003.56
2018-12-10T09:21:15.332Z,1003.38
2018-12-10T09:22:15.309Z,1003.44
2018-12-10T09:23:15.285Z,1003.52
2018-12-10T09:24:15.274Z,1003.45
2018-12-10T09:25:15.290Z,1003.47
2018-12-10T09:26:15.253Z,1003.41
2018-12-10T09:27:15.241Z,1003.55
2018-12-10T09:28:19.450Z,1003.54
2018-12-10T09:29:15.233Z,1003.62
2018-12-10T09:30:15.235Z,1003.61
2018-12-10T09:31:15.199Z,1003.57
2018-12-10T09:32:15.216Z,1003.59
2018-12-10T09:33:15.176Z,1003.58
2018-12-10T09:34:15.163Z,1003.68
2018-12-10T09:35:15.178Z,1003.64
2018-12-10T09:36:15.163Z,1003.68
2018-12-10T09:37:15.129Z,1003.60
2018-12-10T09:38:15.120Z,1003.69
2018-12-10T09:39:15.176Z,1003.74
2018-12-10T09:40:15.189Z,1003.72
2018-12-10T09:41:15.086Z,1003.77
2018-12-10T09:42:15.073Z,1003.77
2018-12-10T09:43:15.064Z,1003.95
2018-12-10T09:44:15.051Z,1004.03
2018-12-10T09:45:15.067Z,1003.85
2018-12-10T09:46:15.030Z,1003.82
2018-12-10T09:47:15.020Z,1003.90
2018-12-10T09:48:15.008Z,1003.88
2018-12-10T09:49:14.996Z,1003.74
2018-12-10T09:50:15.011Z,1003.86
2018-12-10T09:51:14.973Z,1003.89
2018-12-10T09:52:14.967Z,1003.90
2018-12-10T09:53:14.955Z,1003.84
2018-12-10T09:54:14.977Z,1003.89
2018-12-10T09:55:14.972Z,1003.88
2018-12-10T09:56:14.922Z,1003.99
2018-12-10T09:57:14.908Z,1003.97
2018-12-10T09:58:14.898Z,1003.76
2018-12-10T09:59:14.913Z,1003.79
2018-12-10T10:00:14.881Z,1003.93
2018-12-10T10:01:14.893Z,1003.91
2018-12-10T10:02:14.854Z,1003.89
2018-12-10T10:03:14.844Z,1003.95
2018-12-10T10:04:14.834Z,1003.90
2018-12-10T10:05:14.823Z,1003.98
2018-12-10T10:06:14.838Z,1004.01
2018-12-10T10:07:14.800Z,1004.01
2018-12-10T10:08:14.791Z,1004.13
2018-12-10T10:09:14.780Z,1004.13
2018-12-10T10:10:14.772Z,1004.03
2018-12-10T10:11:14.782Z,1004.05
2018-12-10T10:12:14.746Z,1004.06
2018-12-10T10:13:14.736Z,1003.99
2018-12-10T10:14:14.731Z,1004.04
2018-12-10T10:15:14.748Z,1004.11
2018-12-10T10:16:14.704Z,1004.07
2018-12-10T10:17:14.693Z,1004.10
2018-12-10T10:18:14.681Z,1004.08
2018-12-10T10:19:14.675Z,1003.94
2018-12-10T10:20:14.659Z,1004.00
2018-12-10T10:21:14.674Z,1004.09
2018-12-10T10:22:14.642Z,1004.08
2018-12-10T10:23:14.626Z,1004.09
2018-12-10T10:24:14.622Z,1004.04
2018-12-10T10:25:14.604Z,1004.12
2018-12-10T10:26:14.619Z,1004.10
2018-12-10T10:27:14.585Z,1004.07
2018-12-10T10:28:14.572Z,1004.06
2018-12-10T10:29:14.560Z,1004.08
2018-12-10T10:30:14.573Z,1004.08
2018-12-10T10:31:14.538Z,1003.99
2018-12-10T10:32:14.527Z,1004.04
2018-12-10T10:33:14.517Z,1003.91
2018-12-10T10:34:14.506Z,1004.00
2018-12-10T10:35:14.535Z,1004.05
2018-12-10T10:36:14.485Z,1003.99
2018-12-10T10:37:14.478Z,1004.10
2018-12-10T10:38:15.262Z,1003.90
2018-12-10T10:39:14.482Z,1004.06
2018-12-10T10:40:14.441Z,1004.11
2018-12-10T10:41:14.473Z,1003.98
2018-12-10T10:42:14.420Z,1004.01
2018-12-10T10:43:14.421Z,1004.08
2018-12-10T10:44:14.399Z,1004.09
2018-12-10T10:45:14.414Z,1004.12
2018-12-10T10:46:14.400Z,1004.19
2018-12-10T10:47:14.366Z,1004.22
2018-12-10T10:48:14.383Z,1004.31
2018-12-10T10:49:14.342Z,1004.15
2018-12-10T10:50:14.331Z,1004.06
2018-12-10T10:51:14.347Z,1004.06
2018-12-10T10:52:14.310Z,1003.98
2018-12-10T10:53:14.299Z,1004.10
2018-12-10T10:54:14.288Z,1004.17
2018-12-10T10:55:14.275Z,1004.21
2018-12-10T10:56:14.295Z,1004.16
2018-12-10T10:57:14.253Z,1003.93
2018-12-10T10:58:14.243Z,1004.09
2018-12-10T10:59:14.234Z,1004.02
2018-12-10T11:00:14.227Z,1004.05
2018-12-10T11:01:14.235Z,1004.08
2018-12-10T11:02:14.197Z,1004.10
2018-12-10T11:03:14.188Z,1004.09
2018-12-10T11:04:14.179Z,1004.03
2018-12-10T11:05:14.204Z,1004.03
2018-12-10T11:06:14.178Z,1003.98
2018-12-10T11:07:14.145Z,1004.07
2018-12-10T11:08:14.131Z,1004.01
2018-12-10T11:09:15.591Z,1004.06
2018-12-10T11:10:14.110Z,1004.01
2018-12-10T11:11:14.126Z,1004.12
2018-12-10T11:12:14.089Z,1004.06
2018-12-10T11:13:14.096Z,1004.17
2018-12-10T11:14:14.071Z,1004.13
2018-12-10T11:15:14.056Z,1004.10
2018-12-10T11:16:14.071Z,1004.08
2018-12-10T11:17:14.034Z,1004.09
2018-12-10T11:18:14.025Z,1004.10
2018-12-10T11:19:14.016Z,1004.14
2018-12-10T11:20:14.006Z,1004.11
2018-12-10T11:21:14.049Z,1003.99
2018-12-10T11:22:13.984Z,1004.05
2018-12-10T11:23:13.972Z,1004.04
2018-12-10T11:24:13.963Z,1004.07
2018-12-10T11:25:13.954Z,1004.11
2018-12-10T11:26:13.972Z,1004.00
2018-12-10T11:27:13.927Z,1004.02
2018-12-10T11:28:13.919Z,1003.97
2018-12-10T11:29:13.949Z,1003.95
2018-12-10T11:30:14.037Z,1004.04
2018-12-10T11:31:17.240Z,1004.12
2018-12-10T11:32:13.873Z,1004.13
2018-12-10T11:33:13.864Z,1004.15
2018-12-10T11:34:13.854Z,1004.10
2018-12-10T11:35:13.842Z,1004.09
2018-12-10T11:36:13.868Z,1004.13
2018-12-10T11:37:13.821Z,1004.29
2018-12-10T11:38:13.811Z,1004.17
2018-12-10T11:39:13.805Z,1004.21
2018-12-10T11:40:13.788Z,1004.16
2018-12-10T11:41:13.776Z,1004.16
2018-12-10T11:42:13.807Z,1004.18
2018-12-10T11:43:13.758Z,1004.13
2018-12-10T11:44:20.939Z,1004.10
2018-12-10T11:45:13.736Z,1004.23
2018-12-10T11:46:13.725Z,1004.13
2018-12-10T11:47:13.716Z,1004.13
2018-12-10T11:48:13.743Z,1004.16
2018-12-10T11:49:13.713Z,1004.13
2018-12-10T11:50:13.709Z,1004.17
2018-12-10T11:51:13.671Z,1004.06
2018-12-10T11:52:13.662Z,1004.11
2018-12-10T11:53:13.657Z,1004.03
2018-12-10T11:54:13.676Z,1004.05
2018-12-10T11:55:13.628Z,1004.05
2018-12-10T11:56:13.620Z,1004.07
2018-12-10T11:57:13.611Z,1004.13
2018-12-10T11:58:13.601Z,1004.03
2018-12-10T11:59:13.585Z,1004.11
2018-12-10T12:00:13.634Z,1004.01
2018-12-10T12:01:13.562Z,1004.02
2018-12-10T12:02:13.553Z,1004.08
2018-12-10T12:03:13.542Z,1004.07
2018-12-10T12:04:13.533Z,1004.02
2018-12-10T12:05:13.521Z,1004.05
2018-12-10T12:06:13.547Z,1004.10
2018-12-10T12:07:13.499Z,1004.12
2018-12-10T12:08:13.488Z,1004.21
2018-12-10T12:09:13.478Z,1004.12
2018-12-10T12:10:13.474Z,1004.09
2018-12-10T12:11:13.455Z,1004.09
2018-12-10T12:12:13.484Z,1004.10